Latest Coastal Weather Observations for Walpole North

IDW60701

Issued at 5:05 pm WST Tuesday 21 October 2014 (issued every 10 minutes, with the page automatically refreshed every 10 minutes)

About coastal observations | Map of coastal stations | Coastal observations for WA | Marine services | Other Formats
Station Details ID: 009998 Name: NORTH WALPOLE Lat: -34.95 Lon: 116.72 Height: 73.0 m
Data from the previous 72 hours. | See also: Recent months at Walpole North
Date/Time
WST
Temp

°C
Wind Pressure Rain
since 9am
mm
Weather Cloud Vis
km
Sea
Height
m
Swell
Dir
 
Speed
knots
Gust
knots
hPa Trend Height
m
Period
s
Dir
21/05:00pm 15.5 SE 10 14 1022.2 - 0.2 - - - - - - -
21/04:30pm 16.3 ESE 11 14 1022.1 - 0.2 - - - - - - -
21/04:00pm 17.1 SSE 8 14 1022.1 - 0.2 - - - - - - -
21/03:30pm 17.4 SSE 7 12 1022.1 - 0.2 - - - - - - -
21/03:00pm 17.4 SE 9 12 1022.1 - 0.2 - - - - - - -
21/02:30pm 17.6 SSE 7 12 1022.4 - 0.2 - - - - - - -
21/02:00pm 17.3 S 7 10 1022.6 - 0.2 - - - - - - -
21/01:30pm 17.4 S 5 8 1022.6 - 0.2 - - - - - - -
21/01:00pm 17.4 SSE 6 10 1022.7 - 0.2 - - - - - - -
21/12:30pm 17.3 S 5 8 1022.8 - 0.2 - - - - - - -
21/12:00pm 16.5 SE 6 9 1022.7 - 0.2 Recent precip. - - - - - -
21/11:30am 16.0 SSE 5 9 1023.1 - 0.2 - - - - - - -
21/11:00am 17.1 SSE 5 8 1023.3 - 0.0 - - - - - - -
21/10:30am 16.7 S 5 8 1023.4 - 0.0 - - - - - - -
21/10:00am 16.8 SSW 2 7 1023.2 - 0.0 - - - - - - -
21/09:30am 15.1 SW 2 5 1023.2 - 0.0 - - - - - - -
21/09:00am 14.9 WSW 5 8 1022.9 - 1.6 - - - - - - -
21/08:30am 15.1 CALM 0 0 1022.6 - 1.6 - - - - - - -
21/08:00am 13.8 CALM 0 0 1022.4 - 1.6 - - - - - - -
21/07:30am 12.8 CALM 0 0 1022.0 - 1.6 - - - - - - -
21/07:00am 11.9 CALM 0 0 1021.8 - 1.6 - - - - - - -
21/06:30am 11.4 CALM 0 0 1021.6 - 1.6 - - - - - - -
21/06:00am 11.0 CALM 0 0 1021.3 - 1.6 - - - - - - -
21/05:30am 10.9 CALM 0 0 1021.0 - 1.6 - - - - - - -
21/05:00am 11.4 CALM 0 0 1020.6 - 1.6 - - - - - - -
21/04:30am 11.6 CALM 0 0 1020.2 - 1.6 - - - - - - -
21/04:00am 11.6 CALM 0 0 1020.0 - 1.6 - - - - - - -
21/03:30am 11.7 CALM 0 0 1019.9 - 1.6 - - - - - - -
21/03:00am 11.9 CALM 0 0 1019.7 - 1.6 - - - - - - -
21/02:30am 11.9 CALM 0 0 1019.3 - 1.6 - - - - - - -
21/02:00am 11.7 CALM 0 0 1019.5 - 1.6 - - - - - - -
21/01:30am 11.7 CALM 0 0 1019.5 - 1.6 - - - - - - -
21/01:00am 11.7 CALM 0 0 1019.1 - 1.6 - - - - - - -
21/12:30am 11.7 CALM 0 0 1019.1 - 1.6 - - - - - - -
21/12:00am 11.6 W 0 0 1019.3 - 1.6 - - - - - - -
 
Date/Time
WST
Temp

°C
Wind Pressure Rain
since 9am
mm
Weather Cloud Vis
km
Sea
Height
m
Swell
Dir
 
Speed
knots
Gust
knots
hPa Trend Height
m
Period
s
Dir
20/11:30pm 11.7 CALM 0 0 1019.5 - 1.6 - - - - - - -
20/11:00pm 11.5 CALM 0 0 1019.5 - 1.6 - - - - - - -
20/10:30pm 11.9 CALM 0 0 1019.6 - 1.6 - - - - - - -
20/10:00pm 12.3 CALM 0 0 1019.6 - 1.6 - - - - - - -
20/09:30pm 12.4 W 3 5 1020.1 - 1.6 - - - - - - -
20/09:00pm 12.6 SW 4 7 1020.2 - 1.6 Rain - - - - - -
20/08:30pm 12.2 SSW 6 9 1020.1 - 1.4 - - - - - - -
20/08:00pm 12.5 SW 6 9 1019.8 - 1.4 - - - - - - -
20/07:30pm 12.6 SW 6 9 1019.5 - 1.4 - - - - - - -
20/07:00pm 12.7 SW 5 8 1019.4 - 1.0 - - - - - - -
20/06:30pm 13.0 SW 7 13 1019.1 - 0.8 - - - - - - -
20/06:00pm 13.3 SW 7 11 1018.7 - 0.4 - - - - - - -
20/05:30pm 14.3 SW 8 15 1018.4 - 0.4 - - - - - - -
20/05:00pm 14.5 SW 10 17 1018.1 - 0.4 - - - - - - -
20/04:30pm 15.0 SW 9 15 1017.7 - 0.4 - - - - - - -
20/04:00pm 15.3 SW 10 18 1017.4 - 0.4 - - - - - - -
20/03:30pm 15.4 SW 10 17 1016.9 - 0.4 - - - - - - -
20/03:00pm 14.8 SW 7 12 1016.7 - 0.4 - - - - - - -
20/02:30pm 15.1 SW 11 20 1016.7 - 0.4 - - - - - - -
20/02:00pm 15.8 SW 9 14 1016.2 - 0.4 - - - - - - -
20/01:30pm 15.6 SW 10 17 1016.0 - 0.4 - - - - - - -
20/01:00pm 15.8 SW 8 13 1015.9 - 0.2 - - - - - - -
20/12:30pm 15.3 SSW 13 20 1015.9 - 0.0 - - - - - - -
20/12:00pm 15.6 SSW 10 16 1015.7 - 0.0 - - - - - - -
20/11:30am 16.1 S 12 19 1015.4 - 0.0 - - - - - - -
20/11:00am 16.7 SSW 11 18 1015.6 - 0.0 - - - - - - -
20/10:30am 15.9 SSW 8 16 1015.4 - 0.0 - - - - - - -
20/10:00am 16.4 S 9 16 1015.3 - 0.0 - - - - - - -
20/09:30am 15.8 S 11 17 1015.4 - 0.0 - - - - - - -
20/09:00am 15.3 S 10 15 1015.2 - 19.2 Recent precip. - - - - - -
20/08:30am 14.4 S 7 11 1015.0 - 19.0 - - - - - - -
20/08:00am 14.3 S 6 11 1014.9 - 18.6 - - - - - - -
20/07:30am 14.1 S 6 12 1014.6 - 18.2 - - - - - - -
20/07:00am 13.9 SSE 8 15 1014.3 - 17.8 - - - - - - -
20/06:30am 13.8 SSE 8 15 1014.1 - 17.4 - - - - - - -
20/06:00am 13.8 S 6 11 1013.7 - 17.2 Recent precip. - - - - - -
20/05:30am 13.6 SSE 6 13 1013.5 - 16.8 - - - - - - -
20/05:00am 13.5 SSE 8 16 1013.4 - 16.4 - - - - - - -
20/04:30am 13.5 S 10 20 1013.1 - 15.6 - - - - - - -
20/04:00am 13.5 S 7 15 1013.0 - 15.0 - - - - - - -
20/03:30am 13.4 S 9 22 1012.7 - 14.4 - - - - - - -
20/03:00am 13.2 SSE 8 17 1013.0 - 12.8 Rain - - - - - -
20/02:30am 13.1 S 9 20 1013.5 - 10.2 - - - - - - -
20/02:00am 13.0 S 9 19 1013.8 - 7.0 - - - - - - -
20/01:30am 13.1 SSE 8 16 1014.1 - 5.2 - - - - - - -
20/01:00am 13.5 SSE 9 18 1014.5 - 4.6 - - - - - - -
20/12:30am 13.4 SSE 10 18 1014.6 - 4.6 - - - - - - -
20/12:00am 13.2 SSE 10 21 1014.8 - 4.6 Rain - - - - - -
 
Date/Time
WST
Temp

°C
Wind Pressure Rain
since 9am
mm
Weather Cloud Vis
km
Sea
Height
m
Swell
Dir
 
Speed
knots
Gust
knots
hPa Trend Height
m
Period
s
Dir
19/11:30pm 13.1 SSE 12 23 1015.1 - 4.4 - - - - - - -
19/11:00pm 12.9 SSE 13 21 1015.7 - 4.4 - - - - - - -
19/10:30pm 12.9 SSE 15 25 1016.2 - 4.4 - - - - - - -
19/10:08pm 12.9 SE 15 25 1016.5 - 4.4 - - - - - - -
19/10:00pm 12.9 SE 16 24 1016.5 - 4.4 - - - - - - -
19/09:30pm 12.6 SE 14 20 1016.7 - 4.4 - - - - - - -
19/09:00pm 12.5 SE 13 19 1017.1 - 4.4 Recent precip. - - - - - -
19/08:30pm 12.5 SE 13 20 1017.1 - 4.0 - - - - - - -
19/08:00pm 12.4 SE 15 23 1017.5 - 3.8 - - - - - - -
19/07:30pm 12.2 SE 12 17 1017.5 - 3.8 - - - - - - -
19/07:00pm 12.1 SE 13 19 1017.5 - 3.0 - - - - - - -
19/06:30pm 12.0 SE 14 21 1017.7 - 2.8 - - - - - - -
19/06:00pm 11.9 SE 10 13 1018.0 - 2.4 Recent precip. - - - - - -
19/05:30pm 11.7 ESE 10 16 1018.6 - 2.2 - - - - - - -
19/05:00pm 11.8 ESE 10 16 1018.8 - 1.8 - - - - - - -
19/04:30pm 12.1 ESE 9 12 1018.6 - 1.0 - - - - - - -
19/04:00pm 12.1 ESE 11 17 1018.5 - 1.0 - - - - - - -
19/03:30pm 12.7 ESE 12 17 1017.9 - 0.8 - - - - - - -
19/03:00pm 13.0 ESE 11 16 1017.7 - 0.8 - - - - - - -
19/02:30pm 12.4 ESE 9 14 1017.9 - 0.8 - - - - - - -
19/02:00pm 11.8 ESE 9 12 1018.2 - 0.8 - - - - - - -
19/01:30pm 11.9 ESE 12 17 1018.8 - 0.4 - - - - - - -
19/01:00pm 12.1 ESE 14 21 1019.0 - 0.2 - - - - - - -
19/12:30pm 12.4 ESE 15 28 1019.1 - 0.2 - - - - - - -
19/12:24pm 12.5 ESE 15 28 1019.2 - 0.2 - - - - - - -
19/12:00pm 12.3 ESE 13 21 1019.3 - 0.0 - - - - - - -
19/11:43am 12.5 ESE 15 27 1019.4 - 0.0 - - - - - - -
19/11:30am 12.7 ESE 14 20 1019.6 - 0.0 - - - - - - -
19/11:12am 13.0 ESE 15 28 1019.7 - 0.0 - - - - - - -
19/11:00am 13.6 ESE 13 20 1019.7 - 0.0 - - - - - - -
19/10:30am 13.5 ESE 11 17 1020.1 - 0.0 - - - - - - -
19/10:00am 13.2 ESE 11 16 1020.2 - 0.0 - - - - - - -
19/09:30am 12.2 ESE 13 18 1020.5 - 0.0 - - - - - - -
19/09:00am 12.4 ESE 10 14 1020.8 - 6.8 - - - - - - -
19/08:30am 12.1 ESE 13 22 1021.1 - 6.8 - - - - - - -
19/08:00am 12.3 ESE 14 23 1021.1 - 6.8 - - - - - - -
19/07:30am 12.7 ESE 12 18 1020.8 - 6.6 - - - - - - -
19/07:00am 12.0 ESE 12 19 1020.4 - 6.6 - - - - - - -
19/06:30am 11.8 E 9 17 1020.4 - 6.6 - - - - - - -
19/06:00am 11.2 ESE 12 19 1020.2 - 6.6 Recent precip. - - - - - -
19/05:30am 11.2 ESE 11 18 1019.9 - 6.6 - - - - - - -
19/05:00am 11.2 E 9 13 1020.1 - 6.2 - - - - - - -
19/04:30am 11.0 E 7 11 1019.9 - 5.2 - - - - - - -
19/04:00am 11.1 E 6 9 1020.0 - 5.0 - - - - - - -
19/03:30am 11.1 E 9 12 1020.1 - 4.2 - - - - - - -
19/03:00am 11.3 ESE 9 15 1020.4 - 3.8 Recent precip. - - - - - -
19/02:30am 11.3 ESE 11 16 1020.4 - 3.4 - - - - - - -
19/02:00am 11.2 ESE 11 16 1020.4 - 3.4 - - - - - - -
19/01:30am 11.3 E 10 15 1020.6 - 3.4 - - - - - - -
19/01:00am 11.2 ESE 9 13 1020.4 - 3.2 - - - - - - -
19/12:30am 11.3 ESE 9 13 1020.8 - 3.2 - - - - - - -
19/12:00am 11.3 SE 11 15 1020.8 - 3.0 Recent precip. - - - - - -
 
Date/Time
WST
Temp

°C
Wind Pressure Rain
since 9am
mm
Weather Cloud Vis
km
Sea
Height
m
Swell
Dir
 
Speed
knots
Gust
knots
hPa Trend Height
m
Period
s
Dir
18/11:30pm 11.5 E 9 15 1020.8 - 2.6 - - - - - - -
18/11:00pm 11.5 ESE 9 15 1020.9 - 1.8 - - - - - - -
18/10:30pm 11.5 E 11 19 1021.2 - 1.4 - - - - - - -
18/10:00pm 11.8 E 13 17 1021.2 - 0.8 - - - - - - -
18/09:30pm 13.2 ESE 13 18 1020.8 - 0.2 - - - - - - -
18/09:01pm 13.3 ESE 15 25 1020.5 - 0.2 - - - - - - -
18/09:00pm 13.0 ESE 14 25 1020.5 - 0.2 - - - - - - -
18/08:30pm 13.0 ESE 14 20 1020.4 - 0.2 - - - - - - -
18/08:00pm 13.1 ESE 13 21 1020.2 - 0.2 - - - - - - -
18/07:30pm 13.2 SE 15 21 1019.9 - 0.2 - - - - - - -
18/07:00pm 13.5 SE 13 21 1019.2 - 0.2 - - - - - - -
18/06:30pm 13.7 ESE 14 20 1018.9 - 0.2 - - - - - - -
18/06:00pm 13.6 SE 11 18 1018.5 - 0.2 - - - - - - -
18/05:30pm 13.8 SE 13 20 1018.2 - 0.2 - - - - - - -

Other Formats:

Comma delimited format used in spreadsheet applications
http://www.bom.gov.au/fwo/IDW60701/IDW60701.95647.axf

JavaScript Object Notation format (JSON) in row-major order
http://www.bom.gov.au/fwo/IDW60701/IDW60701.95647.json